MST,Max TemperatureF,Mean TemperatureF,Min TemperatureF,Max Dew PointF,MeanDew PointF,Min DewpointF,Max Humidity, Mean Humidity, Min Humidity, Max Sea Level PressureIn, Mean Sea Level PressureIn, Min Sea Level PressureIn, Max VisibilityMiles, Mean VisibilityMiles, Min VisibilityMiles, Max Wind SpeedMPH, Mean Wind SpeedMPH, Max Gust SpeedMPH,PrecipitationIn, CloudCover, Events, WindDirDegrees
2012-11-1,63,47,30,24,21,16,72,45,17,30.06,29.93,29.85,10,10,10,29,12,38,0.00,1,,228
2012-11-2,53,40,26,27,20,12,70,46,22,30.15,30.02,29.89,10,10,10,23,9,29,0.00,0,,261
2012-11-3,53,36,19,21,16,11,74,47,19,30.27,30.18,30.12,10,10,10,23,10,30,0.00,0,,246
2012-11-4,57,43,28,26,23,18,66,49,32,30.35,30.21,30.12,10,10,10,26,14,32,0.00,1,,263
2012-11-5,57,42,26,30,28,25,75,55,35,30.36,30.23,30.12,10,10,10,31,16,39,0.00,0,,254
2012-11-6,60,48,36,32,28,24,70,49,28,30.27,30.19,30.11,10,10,10,26,12,37,0.00,0,,243
2012-11-7,63,50,36,24,20,16,54,36,17,30.10,29.97,29.85,10,10,10,25,11,33,0.00,0,,236
2012-11-8,63,49,35,21,17,12,48,33,17,29.89,29.71,29.52,10,10,10,36,15,46,0.00,0,,210
2012-11-9,58,48,38,37,29,17,79,52,24,29.56,29.44,29.33,10,10,4,47,27,63,0.02,2,Rain,202
2012-11-10,39,28,16,34,24,11,100,89,77,29.87,29.59,29.38,10,6,0,24,11,32,0.25,7,Fog-Rain-Snow,266
2012-11-11,21,17,12,11,9,6,84,71,57,30.39,30.05,29.79,10,10,7,32,21,40,T,4,Snow,256
2012-11-12,27,20,13,12,9,6,80,63,46,30.56,30.41,30.20,10,10,10,31,13,39,0.00,3,,245
2012-11-13,35,29,22,25,21,12,81,71,60,30.38,30.33,30.26,10,10,10,24,10,30,0.00,5,,243
2012-11-14,42,32,22,30,24,17,82,63,44,30.29,30.22,30.16,10,8,2,30,13,37,T,6,Snow,240
2012-11-15,44,31,18,28,24,16,100,75,49,30.40,30.32,30.24,10,10,5,18,7,23,0.00,1,,243
2012-11-16,53,37,21,31,20,14,84,53,22,30.27,30.13,30.05,10,10,10,37,8,44,T,1,,217
2012-11-17,47,40,32,36,33,29,92,79,65,30.17,30.08,29.99,10,10,7,20,8,24,0.03,6,Rain-Snow,234
2012-11-18,50,43,35,37,33,29,92,71,50,30.14,29.99,29.89,10,10,4,26,12,33,0.05,5,Rain,231
2012-11-19,49,41,32,33,29,25,92,67,42,30.28,30.20,30.09,10,10,10,24,12,30,0.00,2,,240
2012-11-20,51,42,32,27,26,21,75,57,39,30.28,30.16,30.01,10,10,10,24,13,31,0.00,0,,225
2012-11-21,53,46,38,22,19,15,48,36,24,30.03,29.90,29.82,10,10,10,37,21,46,0.00,0,,232
2012-11-22,40,31,22,27,13,5,64,44,23,30.51,30.23,29.86,10,10,10,32,16,40,0.00,2,,262
2012-11-23,46,30,14,17,12,4,67,43,18,30.56,30.40,30.21,10,10,10,26,12,35,0.00,0,,233
2012-11-24,51,44,36,17,14,8,40,29,18,30.18,30.04,29.92,10,10,10,35,18,44,0.00,1,,239
2012-11-25,43,36,28,26,17,12,69,49,29,30.01,29.87,29.78,10,10,10,36,20,49,T,1,,252
2012-11-26,37,31,24,25,20,14,88,66,43,30.32,30.20,30.05,10,10,9,21,8,25,T,5,,296
2012-11-27,49,39,29,17,13,10,63,42,21,30.25,30.22,30.15,10,10,10,28,15,35,0.00,0,,248
2012-11-28,51,41,31,18,13,9,41,31,20,30.26,30.12,29.96,10,10,10,30,13,38,0.00,0,,227
2012-11-29,51,43,34,23,20,18,52,41,29,30.09,30.01,29.92,10,10,10,30,15,39,0.00,1,,243
2012-11-30,51,44,37,28,26,22,64,53,42,30.01,29.89,29.80,10,10,10,41,21,54,0.00,1,Rain,221